createdAt,value
2023-03-21T00:00:42.119Z,100.00
2023-03-21T00:03:09.228Z,100.00
2023-03-21T00:05:41.845Z,100.00
2023-03-21T00:08:09.078Z,100.00
2023-03-21T00:10:43.611Z,100.00
2023-03-21T00:13:15.785Z,100.00
2023-03-21T00:18:46.641Z,100.00
2023-03-21T00:24:08.134Z,100.00
2023-03-21T00:26:35.638Z,100.00
2023-03-21T00:29:02.667Z,100.00
2023-03-21T00:31:29.422Z,100.00
2023-03-21T00:33:56.974Z,100.00
2023-03-21T00:36:26.067Z,100.00
2023-03-21T00:38:53.388Z,100.00
2023-03-21T00:41:38.752Z,100.00
2023-03-21T00:44:07.230Z,100.00
2023-03-21T00:46:43.973Z,100.00
2023-03-21T00:49:16.322Z,100.00
2023-03-21T00:51:43.782Z,100.00
2023-03-21T00:54:13.052Z,100.00
2023-03-21T00:56:41.243Z,100.00
2023-03-21T00:59:08.310Z,100.00
2023-03-21T01:01:36.450Z,100.00
2023-03-21T01:04:10.917Z,100.00
2023-03-21T01:06:39.609Z,100.00
2023-03-21T01:09:23.954Z,100.00
2023-03-21T01:11:51.879Z,100.00
2023-03-21T01:14:23.575Z,100.00
2023-03-21T01:16:53.982Z,100.00
2023-03-21T01:19:38.014Z,100.00
2023-03-21T01:22:11.476Z,100.00
2023-03-21T01:24:46.835Z,100.00
2023-03-21T01:27:19.759Z,100.00
2023-03-21T01:29:48.773Z,100.00
2023-03-21T01:32:15.640Z,100.00
2023-03-21T01:34:42.723Z,100.00
2023-03-21T01:37:09.591Z,100.00
2023-03-21T01:39:43.659Z,100.00
2023-03-21T01:42:14.375Z,100.00
2023-03-21T01:44:59.488Z,100.00
2023-03-21T01:47:34.936Z,100.00
2023-03-21T01:50:17.212Z,100.00
2023-03-21T01:52:55.274Z,100.00
2023-03-21T01:55:28.809Z,100.00
2023-03-21T01:58:10.413Z,100.00
2023-03-21T02:00:56.953Z,100.00
2023-03-21T02:03:38.723Z,100.00
2023-03-21T02:06:34.123Z,100.00
2023-03-21T02:09:26.121Z,100.00
2023-03-21T02:11:54.947Z,100.00
2023-03-21T02:14:29.235Z,100.00
2023-03-21T02:17:24.502Z,100.00
2023-03-21T02:19:59.226Z,100.00
2023-03-21T02:22:42.062Z,100.00
2023-03-21T02:25:22.483Z,100.00
2023-03-21T02:27:59.756Z,100.00
2023-03-21T02:30:52.074Z,100.00
2023-03-21T02:33:58.036Z,100.00
2023-03-21T02:36:34.046Z,100.00
2023-03-21T02:39:27.117Z,100.00
2023-03-21T02:42:13.230Z,100.00
2023-03-21T02:44:46.566Z,100.00
2023-03-21T02:47:22.898Z,100.00
2023-03-21T02:50:03.724Z,100.00
2023-03-21T02:52:39.470Z,100.00
2023-03-21T02:55:15.620Z,100.00
2023-03-21T02:58:06.855Z,100.00
2023-03-21T03:00:38.926Z,100.00
2023-03-21T03:03:10.459Z,100.00
2023-03-21T03:05:48.216Z,100.00
2023-03-21T03:08:43.150Z,100.00
2023-03-21T03:11:26.272Z,100.00
2023-03-21T03:14:35.848Z,100.00
2023-03-21T03:17:23.384Z,100.00
2023-03-21T03:20:16.833Z,100.00
2023-03-21T03:23:08.543Z,100.00
2023-03-21T03:25:49.541Z,100.00
2023-03-21T03:28:28.124Z,100.00
2023-03-21T03:31:08.680Z,100.00
2023-03-21T03:33:52.910Z,100.00
2023-03-21T03:36:32.080Z,100.00
2023-03-21T03:39:09.149Z,100.00
2023-03-21T03:44:38.107Z,100.00
2023-03-21T03:47:15.116Z,100.00
2023-03-21T03:49:56.736Z,100.00
2023-03-21T03:52:32.536Z,100.00
2023-03-21T03:55:06.116Z,100.00
2023-03-21T03:57:37.067Z,100.00
2023-03-21T04:00:11.878Z,100.00
2023-03-21T04:02:45.264Z,100.00
2023-03-21T04:05:16.078Z,100.00
2023-03-21T04:07:42.923Z,100.00
2023-03-21T04:10:10.663Z,100.00
2023-03-21T04:12:41.522Z,100.00
2023-03-21T04:15:40.248Z,100.00
2023-03-21T04:18:13.953Z,100.00
2023-03-21T04:20:41.021Z,100.00
2023-03-21T04:23:08.537Z,100.00
2023-03-21T04:25:38.675Z,100.00
2023-03-21T04:28:07.666Z,100.00
2023-03-21T04:31:08.762Z,100.00
2023-03-21T04:33:48.078Z,100.00
2023-03-21T04:36:25.234Z,100.00
2023-03-21T04:38:54.970Z,100.00
2023-03-21T04:41:21.958Z,100.00
2023-03-21T04:43:49.857Z,100.00
2023-03-21T04:46:16.968Z,100.00
2023-03-21T04:48:44.111Z,100.00
2023-03-21T04:51:11.461Z,100.00
2023-03-21T04:53:39.704Z,100.00
2023-03-21T04:56:07.196Z,100.00
2023-03-21T04:58:34.590Z,100.00
2023-03-21T05:01:02.650Z,100.00
2023-03-21T05:03:30.659Z,100.00
2023-03-21T05:05:58.301Z,100.00
2023-03-21T05:08:25.549Z,100.00
2023-03-21T05:10:52.761Z,100.00
2023-03-21T05:13:20.943Z,100.00
2023-03-21T05:15:49.106Z,100.00
2023-03-21T05:18:25.043Z,100.00
2023-03-21T05:21:08.046Z,100.00
2023-03-21T05:23:38.471Z,100.00
2023-03-21T05:26:07.858Z,100.00
2023-03-21T05:28:41.562Z,100.00
2023-03-21T05:31:09.078Z,100.00
2023-03-21T05:33:36.064Z,100.00
2023-03-21T05:36:03.204Z,100.00
2023-03-21T05:38:31.887Z,100.00
2023-03-21T05:40:59.294Z,100.00
2023-03-21T05:43:26.732Z,100.00
2023-03-21T05:45:53.840Z,100.00
2023-03-21T05:48:21.163Z,100.00
2023-03-21T05:51:08.919Z,100.00
2023-03-21T05:53:35.947Z,100.00
2023-03-21T05:56:03.448Z,100.00
2023-03-21T05:58:45.393Z,100.00
2023-03-21T06:01:12.746Z,100.00
2023-03-21T06:03:43.885Z,100.00
2023-03-21T06:06:16.646Z,100.00
2023-03-21T06:08:55.185Z,100.00
2023-03-21T06:11:29.763Z,100.00
2023-03-21T06:14:29.049Z,100.00
2023-03-21T06:17:22.160Z,100.00
2023-03-21T06:19:54.577Z,100.00
2023-03-21T06:22:28.949Z,100.00
2023-03-21T06:24:55.728Z,100.00
2023-03-21T06:27:23.128Z,100.00
2023-03-21T06:29:53.629Z,100.00
2023-03-21T06:32:21.468Z,100.00
2023-03-21T06:34:52.212Z,100.00
2023-03-21T06:37:19.962Z,100.00
2023-03-21T06:39:47.132Z,100.00
2023-03-21T06:42:14.896Z,100.00
2023-03-21T06:44:42.152Z,100.00
2023-03-21T06:47:13.487Z,100.00
2023-03-21T06:49:43.882Z,100.00
2023-03-21T06:52:12.854Z,100.00
2023-03-21T06:54:40.763Z,99.53
2023-03-21T06:57:13.807Z,99.52
2023-03-21T06:59:44.061Z,99.54
2023-03-21T07:02:16.921Z,99.00
2023-03-21T07:05:06.941Z,97.74
2023-03-21T07:07:34.101Z,98.22
2023-03-21T07:10:01.253Z,98.55
2023-03-21T07:12:34.573Z,97.89
2023-03-21T07:15:34.796Z,96.84
2023-03-21T07:18:01.814Z,97.00
2023-03-21T07:20:53.932Z,96.62
2023-03-21T07:23:23.244Z,95.02
2023-03-21T07:25:51.649Z,92.84
2023-03-21T07:28:19.295Z,93.32
2023-03-21T07:30:51.799Z,93.32
2023-03-21T07:33:19.922Z,93.60
2023-03-21T07:35:47.162Z,94.59
2023-03-21T07:38:16.876Z,94.32
2023-03-21T07:40:44.832Z,93.02
2023-03-21T07:43:11.753Z,93.49
2023-03-21T07:45:42.834Z,93.03
2023-03-21T07:48:10.959Z,92.85
2023-03-21T07:50:38.084Z,90.61
2023-03-21T07:53:07.341Z,90.07
2023-03-21T07:55:35.233Z,90.50
2023-03-21T07:58:05.930Z,89.25
2023-03-21T08:00:33.227Z,88.54
2023-03-21T08:03:00.497Z,88.90
2023-03-21T08:05:35.580Z,86.99
2023-03-21T08:08:03.409Z,86.08
2023-03-21T08:10:30.584Z,86.02
2023-03-21T08:12:57.640Z,86.42
2023-03-21T08:15:24.955Z,86.05
2023-03-21T08:17:52.356Z,84.71
2023-03-21T08:20:22.069Z,84.46
2023-03-21T08:22:50.532Z,84.08
2023-03-21T08:25:20.542Z,81.29
2023-03-21T08:27:48.371Z,81.44
2023-03-21T08:30:18.645Z,80.81
2023-03-21T08:32:45.430Z,80.51
2023-03-21T08:35:16.247Z,80.84
2023-03-21T08:37:43.834Z,81.08
2023-03-21T08:40:14.365Z,80.12
2023-03-21T08:42:41.986Z,79.12
2023-03-21T08:45:10.607Z,78.63
2023-03-21T08:47:37.931Z,77.17
2023-03-21T08:50:09.772Z,77.83
2023-03-21T08:52:37.263Z,77.98
2023-03-21T08:55:05.269Z,77.66
2023-03-21T08:57:32.306Z,76.16
2023-03-21T08:59:59.539Z,75.72
2023-03-21T09:02:27.143Z,74.88
2023-03-21T09:04:55.097Z,75.35
2023-03-21T09:07:22.296Z,74.47
2023-03-21T09:10:08.188Z,73.15
2023-03-21T09:12:39.370Z,72.78
2023-03-21T09:15:07.701Z,73.63
2023-03-21T09:17:34.845Z,73.08
2023-03-21T09:20:08.660Z,71.80
2023-03-21T09:22:35.630Z,71.93
2023-03-21T09:25:02.988Z,71.06
2023-03-21T09:27:30.569Z,71.20
2023-03-21T09:29:57.717Z,70.65
2023-03-21T09:32:25.261Z,70.49
2023-03-21T09:34:53.216Z,69.17
2023-03-21T09:37:21.394Z,68.36
2023-03-21T09:39:52.047Z,68.21
2023-03-21T09:42:50.600Z,66.78
2023-03-21T09:45:44.734Z,67.40
2023-03-21T09:48:31.848Z,66.99
2023-03-21T09:50:59.710Z,67.44
2023-03-21T09:53:33.470Z,67.77
2023-03-21T09:56:02.240Z,66.07
2023-03-21T09:58:36.676Z,64.49
2023-03-21T10:01:22.269Z,64.34
2023-03-21T10:03:54.368Z,63.58
2023-03-21T10:06:28.737Z,64.10
2023-03-21T10:09:07.385Z,64.02
2023-03-21T10:11:45.013Z,63.04
2023-03-21T10:14:21.300Z,63.59
2023-03-21T10:16:52.433Z,63.19
2023-03-21T10:19:20.630Z,62.86
2023-03-21T10:22:01.372Z,62.64
2023-03-21T10:24:33.291Z,62.09
2023-03-21T10:27:01.768Z,61.56
2023-03-21T10:29:46.610Z,59.83
2023-03-21T10:32:17.646Z,60.25
2023-03-21T10:37:24.938Z,59.52
2023-03-21T10:39:56.099Z,59.47
2023-03-21T10:42:26.556Z,58.02
2023-03-21T10:44:57.458Z,58.76
2023-03-21T10:47:28.236Z,57.91
2023-03-21T10:50:11.589Z,57.86
2023-03-21T10:52:50.536Z,57.46
2023-03-21T10:55:28.725Z,56.91
2023-03-21T10:58:08.796Z,57.89
2023-03-21T11:00:39.442Z,58.44
2023-03-21T11:03:07.501Z,58.02
2023-03-21T11:05:44.262Z,57.77
2023-03-21T11:08:18.256Z,57.27
2023-03-21T11:10:59.916Z,57.65
2023-03-21T11:13:34.289Z,56.83
2023-03-21T11:16:10.348Z,55.92
2023-03-21T11:18:43.728Z,56.05
2023-03-21T11:21:13.404Z,56.08
2023-03-21T11:23:45.562Z,55.62
2023-03-21T11:26:19.653Z,55.17
2023-03-21T11:28:47.187Z,54.53
2023-03-21T11:31:14.405Z,53.82
2023-03-21T11:33:51.875Z,53.18
2023-03-21T11:36:18.755Z,52.05
2023-03-21T11:38:53.590Z,52.60
2023-03-21T11:41:24.719Z,52.70
2023-03-21T11:43:53.188Z,52.99
2023-03-21T11:46:25.790Z,53.14
2023-03-21T11:48:53.204Z,52.19
2023-03-21T11:51:35.418Z,53.32
2023-03-21T11:54:20.900Z,53.18
2023-03-21T11:56:54.802Z,53.09
2023-03-21T11:59:39.880Z,53.35
2023-03-21T12:02:16.748Z,54.57
2023-03-21T12:04:48.978Z,54.38
2023-03-21T12:07:24.973Z,54.61
2023-03-21T12:10:09.840Z,54.38
2023-03-21T12:12:48.885Z,54.74
2023-03-21T12:15:27.920Z,54.15
2023-03-21T12:18:25.113Z,54.69
2023-03-21T12:20:58.847Z,54.15
2023-03-21T12:23:58.264Z,54.06
2023-03-21T12:26:39.241Z,54.75
2023-03-21T12:29:39.367Z,54.77
2023-03-21T12:32:29.529Z,54.57
2023-03-21T12:35:24.526Z,54.68
2023-03-21T12:37:58.041Z,54.63
2023-03-21T12:40:49.585Z,55.02
2023-03-21T12:43:27.412Z,54.92
2023-03-21T12:45:59.975Z,54.49
2023-03-21T12:48:52.665Z,54.69
2023-03-21T12:51:24.267Z,53.71
2023-03-21T12:54:03.296Z,54.20
2023-03-21T12:57:02.314Z,54.80
2023-03-21T12:59:50.457Z,55.55
2023-03-21T13:02:34.341Z,54.33
2023-03-21T13:05:21.903Z,54.74
2023-03-21T13:07:58.114Z,55.00
2023-03-21T13:10:25.312Z,55.14
2023-03-21T13:13:13.761Z,54.63
2023-03-21T13:15:55.720Z,54.69
2023-03-21T13:18:53.992Z,54.79
2023-03-21T13:21:43.725Z,55.23
2023-03-21T13:24:49.484Z,56.07
2023-03-21T13:27:35.494Z,55.58
2023-03-21T13:30:08.868Z,55.13
2023-03-21T13:32:39.520Z,55.49
2023-03-21T13:35:09.966Z,55.64
2023-03-21T13:37:42.099Z,55.27
2023-03-21T13:40:39.874Z,54.99
2023-03-21T13:43:44.888Z,54.97
2023-03-21T13:46:13.531Z,54.50
2023-03-21T13:48:58.509Z,53.87
2023-03-21T13:51:29.518Z,53.85
2023-03-21T13:54:18.337Z,53.48
2023-03-21T13:56:46.075Z,54.22
2023-03-21T13:59:14.334Z,54.10
2023-03-21T14:01:58.294Z,54.03
2023-03-21T14:04:41.934Z,53.18
2023-03-21T14:07:21.883Z,52.84
2023-03-21T14:10:28.280Z,53.28
2023-03-21T14:12:55.988Z,54.56
2023-03-21T14:15:55.055Z,55.75
2023-03-21T14:18:52.196Z,57.54
2023-03-21T14:21:24.853Z,58.87
2023-03-21T14:24:07.152Z,59.39
2023-03-21T14:26:42.552Z,59.96
2023-03-21T14:29:25.486Z,60.67
2023-03-21T14:31:56.417Z,62.64
2023-03-21T14:34:26.133Z,63.90
2023-03-21T14:36:58.223Z,64.39
2023-03-21T14:39:31.253Z,65.75
2023-03-21T14:42:10.243Z,66.18
2023-03-21T14:44:54.307Z,67.46
2023-03-21T14:47:24.745Z,67.87
2023-03-21T14:49:52.262Z,67.91
2023-03-21T14:52:30.536Z,68.45
2023-03-21T14:54:58.586Z,69.21
2023-03-21T14:57:29.671Z,69.15
2023-03-21T15:00:00.455Z,69.51
2023-03-21T15:02:33.890Z,69.83
2023-03-21T15:05:15.468Z,70.34
2023-03-21T15:07:42.532Z,70.42
2023-03-21T15:10:21.233Z,70.48
2023-03-21T15:13:02.624Z,70.03
2023-03-21T15:15:31.839Z,70.31
2023-03-21T15:18:05.311Z,70.60
2023-03-21T15:20:36.004Z,70.20
2023-03-21T15:23:28.526Z,69.84
2023-03-21T15:25:56.032Z,69.47
2023-03-21T15:28:23.014Z,69.95
2023-03-21T15:30:52.065Z,69.91
2023-03-21T15:33:20.702Z,70.14
2023-03-21T15:35:55.752Z,70.41
2023-03-21T15:38:41.107Z,69.89
2023-03-21T15:41:20.306Z,69.99
2023-03-21T15:43:49.231Z,70.24
2023-03-21T15:46:31.054Z,70.50
2023-03-21T15:49:27.764Z,71.73
2023-03-21T15:51:59.598Z,72.27
2023-03-21T15:54:31.066Z,73.01
2023-03-21T15:57:01.372Z,73.73
2023-03-21T15:59:33.533Z,74.04
2023-03-21T16:02:00.804Z,74.26
2023-03-21T16:04:27.793Z,74.27
2023-03-21T16:07:01.501Z,74.80
2023-03-21T16:09:39.222Z,75.29
2023-03-21T16:12:14.051Z,76.17
2023-03-21T16:14:42.827Z,76.29
2023-03-21T16:17:28.756Z,75.82
2023-03-21T16:19:56.049Z,76.65
2023-03-21T16:22:23.227Z,76.88
2023-03-21T16:24:50.327Z,77.54
2023-03-21T16:27:19.645Z,77.52
2023-03-21T16:29:46.780Z,78.25
2023-03-21T16:32:18.528Z,78.28
2023-03-21T16:34:46.387Z,78.45
2023-03-21T16:37:16.401Z,78.65
2023-03-21T16:39:43.294Z,79.26
2023-03-21T16:42:16.430Z,79.13
2023-03-21T16:44:43.205Z,79.32
2023-03-21T16:47:35.090Z,79.61
2023-03-21T16:50:02.033Z,80.14
2023-03-21T16:52:29.228Z,80.56
2023-03-21T16:57:37.878Z,80.83
2023-03-21T17:00:16.839Z,80.86
2023-03-21T17:02:44.061Z,81.70
2023-03-21T17:05:11.645Z,81.72
2023-03-21T17:07:39.089Z,81.82
2023-03-21T17:10:32.312Z,81.25
2023-03-21T17:12:59.695Z,81.08
2023-03-21T17:15:26.689Z,80.74
2023-03-21T17:17:55.912Z,81.19
2023-03-21T17:20:25.098Z,81.13
2023-03-21T17:22:56.350Z,81.13
2023-03-21T17:25:31.599Z,81.31
2023-03-21T17:28:01.674Z,81.84
2023-03-21T17:30:40.194Z,81.98
2023-03-21T17:33:08.058Z,82.55
2023-03-21T17:35:35.167Z,83.48
2023-03-21T17:38:02.382Z,83.44
2023-03-21T17:40:32.215Z,84.66
2023-03-21T17:43:01.391Z,85.41
2023-03-21T17:45:28.390Z,85.82
2023-03-21T17:47:55.658Z,85.79
2023-03-21T17:50:26.072Z,85.97
2023-03-21T17:52:53.251Z,86.22
2023-03-21T17:55:21.423Z,86.18
2023-03-21T17:57:49.610Z,86.25
2023-03-21T18:00:23.099Z,86.10
2023-03-21T18:02:51.224Z,86.33
2023-03-21T18:05:18.927Z,86.73
2023-03-21T18:10:33.489Z,85.91
2023-03-21T18:13:00.850Z,86.28
2023-03-21T18:15:30.522Z,86.61
2023-03-21T18:17:58.430Z,86.27
2023-03-21T18:20:50.430Z,86.40
2023-03-21T18:23:18.841Z,86.74
2023-03-21T18:25:45.942Z,87.31
2023-03-21T18:28:29.873Z,87.25
2023-03-21T18:32:34.435Z,87.42
2023-03-21T18:33:50.494Z,87.43
2023-03-21T18:36:25.221Z,87.94
2023-03-21T18:38:53.116Z,88.28
2023-03-21T18:41:21.110Z,89.40
2023-03-21T18:44:12.981Z,90.43
2023-03-21T18:46:47.111Z,91.05
2023-03-21T18:50:14.175Z,90.73
2023-03-21T18:52:43.997Z,90.99
2023-03-21T18:55:12.023Z,91.65
2023-03-21T18:57:40.642Z,91.63
2023-03-21T19:00:13.860Z,92.65
2023-03-21T19:02:46.902Z,92.99
2023-03-21T19:05:16.341Z,93.19
2023-03-21T19:07:43.276Z,93.42
2023-03-21T19:10:19.669Z,92.79
2023-03-21T19:12:52.493Z,92.44
2023-03-21T19:15:21.910Z,93.14
2023-03-21T19:20:38.197Z,94.16
2023-03-21T19:23:08.229Z,95.53
2023-03-21T19:25:36.882Z,95.97
2023-03-21T19:28:05.052Z,96.58
2023-03-21T19:30:32.099Z,96.56
2023-03-21T19:32:59.151Z,96.81
2023-03-21T19:35:26.096Z,97.18
2023-03-21T19:37:53.268Z,97.27
2023-03-21T19:40:20.538Z,96.69
2023-03-21T19:42:47.634Z,96.80
2023-03-21T19:45:14.773Z,95.38
2023-03-21T19:47:42.218Z,95.28
2023-03-21T19:52:57.048Z,96.27
2023-03-21T19:55:24.776Z,96.68
2023-03-21T19:57:53.631Z,97.30
2023-03-21T20:00:22.400Z,96.40
2023-03-21T20:02:50.781Z,96.76
2023-03-21T20:05:20.515Z,97.21
2023-03-21T20:07:47.370Z,97.58
2023-03-21T20:10:14.312Z,97.26
2023-03-21T20:12:41.356Z,97.76
2023-03-21T20:15:17.293Z,97.11
2023-03-21T20:17:46.585Z,97.32
2023-03-21T20:20:15.159Z,97.03
2023-03-21T20:23:05.733Z,97.12
2023-03-21T20:25:30.234Z,97.10
2023-03-21T20:28:14.449Z,96.35
2023-03-21T20:30:51.249Z,96.00
2023-03-21T20:33:18.760Z,96.35
2023-03-21T20:36:35.614Z,96.79
2023-03-21T20:38:34.450Z,97.76
2023-03-21T20:41:03.182Z,98.19
2023-03-21T20:46:18.400Z,99.30
2023-03-21T20:48:48.889Z,99.57
2023-03-21T20:54:03.657Z,100.00
2023-03-21T20:56:30.747Z,100.00
2023-03-21T20:59:14.634Z,100.00
2023-03-21T21:01:45.551Z,100.00
2023-03-21T21:04:15.084Z,100.00
2023-03-21T21:06:42.191Z,100.00
2023-03-21T21:09:09.396Z,100.00
2023-03-21T21:14:24.166Z,100.00
2023-03-21T21:16:52.668Z,100.00
2023-03-21T21:19:21.771Z,100.00
2023-03-21T21:21:48.687Z,100.00
2023-03-21T21:24:15.654Z,100.00
2023-03-21T21:26:46.338Z,100.00
2023-03-21T21:29:16.871Z,100.00
2023-03-21T21:31:49.821Z,100.00
2023-03-21T21:34:18.711Z,100.00
2023-03-21T21:36:45.964Z,100.00
2023-03-21T21:39:15.664Z,100.00
2023-03-21T21:41:43.197Z,100.00
2023-03-21T21:44:10.989Z,100.00
2023-03-21T21:46:38.161Z,100.00
2023-03-21T21:49:05.294Z,100.00
2023-03-21T21:51:34.093Z,100.00
2023-03-21T21:54:03.632Z,100.00
2023-03-21T21:56:32.608Z,100.00
2023-03-21T21:59:03.384Z,100.00
2023-03-21T22:01:31.487Z,100.00
2023-03-21T22:04:06.160Z,100.00
2023-03-21T22:06:36.160Z,100.00
2023-03-21T22:09:06.997Z,100.00
2023-03-21T22:11:34.165Z,100.00
2023-03-21T22:14:01.161Z,100.00
2023-03-21T22:16:28.266Z,100.00
2023-03-21T22:18:55.299Z,100.00
2023-03-21T22:21:22.204Z,100.00
2023-03-21T22:23:49.071Z,100.00
2023-03-21T22:26:16.302Z,100.00
2023-03-21T22:28:43.717Z,100.00
2023-03-21T22:31:13.826Z,100.00
2023-03-21T22:33:41.032Z,100.00
2023-03-21T22:36:08.353Z,100.00
2023-03-21T22:38:38.244Z,100.00
2023-03-21T22:41:06.438Z,100.00
2023-03-21T22:43:34.481Z,100.00
2023-03-21T22:46:03.023Z,100.00
2023-03-21T22:48:30.911Z,100.00
2023-03-21T22:50:59.123Z,100.00
2023-03-21T22:53:26.687Z,100.00
2023-03-21T22:55:53.624Z,100.00
2023-03-21T22:58:20.918Z,100.00
2023-03-21T23:00:47.886Z,100.00
2023-03-21T23:03:16.770Z,100.00
2023-03-21T23:05:45.205Z,100.00
2023-03-21T23:08:13.002Z,100.00
2023-03-21T23:10:43.446Z,100.00
2023-03-21T23:13:10.743Z,100.00
2023-03-21T23:15:41.200Z,100.00
2023-03-21T23:18:08.190Z,100.00
2023-03-21T23:20:35.989Z,100.00
2023-03-21T23:23:02.991Z,100.00
2023-03-21T23:25:30.429Z,100.00
2023-03-21T23:27:57.426Z,100.00
2023-03-21T23:30:24.447Z,100.00
2023-03-21T23:32:51.716Z,100.00
2023-03-21T23:35:18.666Z,100.00
2023-03-21T23:37:52.436Z,100.00
2023-03-21T23:40:20.482Z,100.00
2023-03-21T23:42:47.576Z,100.00
2023-03-21T23:45:14.484Z,100.00
2023-03-21T23:47:41.500Z,100.00
2023-03-21T23:50:10.005Z,100.00
2023-03-21T23:52:37.916Z,100.00
2023-03-21T23:55:05.796Z,100.00
2023-03-21T23:57:32.959Z,100.00
2023-03-21T23:59:59.979Z,100.00
